ADDS METAR Data INFO
IDs: Format: Raw Decoded Include TAF

Data at: 1044 UTC 19 Oct 2017

PADM 190956Z AUTO 29005KT 9SM -SN FEW008 BKN035 OVC043 M02/M03 A2958 RMK AO2 UPE15SNB01E12B15 SLP026 P0000 T10221028 FZRANO
PADM 190943Z AUTO 28004KT 5SM -SN BR SCT008 BKN025 OVC044 M02/M03 A2959 RMK AO2 UPE15SNB01E12B15 P0000 FZRANO
PADM 190939Z AUTO 29005KT 2 1/2SM -SN BR FEW006 BKN036 OVC043 M02/M03 A2959 RMK AO2 UPE15SNB01E12B15 P0000 FZRANO
PADM 190856Z AUTO 32003KT 10SM UP FEW030 BKN038 OVC048 M03/M03 A2958 RMK AO2 UPE00B54 SLP026 P0000 60000 T10281033 52004 FZRANO
PADM 190756Z AUTO 00000KT 10SM UP BKN043 OVC050 M03/M03 A2958 RMK AO2 UPB49 SLP024 P0000 T10281033 400221044 FZRANO
PADM 190656Z AUTO 00000KT 10SM CLR M04/M05 A2958 RMK AO2 SLP024 T10441050 FZRANO
PADM 190556Z AUTO 00000KT 10SM SCT040 M03/M03 A2957 RMK AO2 SLP022 60000 T10281033 10022 21028 52004 FZRANO
PADM 190456Z AUTO 32005KT 9SM SCT006 OVC036 M01/M03 A2957 RMK AO2 RAB06E08UPB52E54SNB08E52 SLP021 P0000 T10111028 FZRANO
PADM 190427Z AUTO 32007KT 3SM -SN BR FEW004 BKN008 OVC020 M01/M02 A2957 RMK AO2 RAB06E08SNB08 CIG 007V011 P0000 FZRANO
PADM 190424Z AUTO 33006KT 1 1/4SM -SN BR FEW004 BKN013 OVC020 M01/M02 A2957 RMK AO2 RAB06E08SNB08 P0000 FZRANO
PADM 190417Z AUTO 33006KT 3/4SM -SN BR FEW004 BKN013 OVC020 M01/M02 A2957 RMK AO2 RAB06E08SNB08 P0000 FZRANO RVRNO
PADM 190414Z AUTO 34009KT 1 1/2SM -SN BR SCT008 BKN013 OVC020 M01/M02 A2957 RMK AO2 RAB06E08SNB08 P0000 FZRANO
PADM 190411Z AUTO 35010G16KT 2 1/2SM -SN BR FEW008 SCT013 BKN020 00/M02 A2957 RMK AO2 RAB06E08SNB08 P0000 FZRANO
PADM 190356Z AUTO 28006KT 10SM BKN022 BKN060 00/M03 A2956 RMK AO2 SLP019 T00001033 FZRANO
PADM 190345Z AUTO 29005KT 10SM BKN024 BKN037 BKN044 01/M03 A2956 RMK AO2 FZRANO
PADM 190256Z AUTO 29007KT 10SM FEW037 01/M04 A2956 RMK AO2 SLP018 T00111039 55000 FZRANO
PADM 190156Z AUTO 31009KT 10SM FEW029 02/M04 A2955 RMK AO2 SLP016 T00171044 FZRANO
PADM 190056Z AUTO 33008KT 10SM FEW028 SCT040 BKN100 02/M03 A2956 RMK AO2 SLP017 T00171033 FZRANO
PADM 182356Z AUTO 33012KT 10SM BKN032 OVC040 02/M03 A2956 RMK AO2 SLP018 60000 T00221033 10022 21011 58003 FZRANO
PADM 182256Z AUTO 31011KT 10SM BKN048 OVC065 02/M03 A2956 RMK AO2 SLP019 T00221028 FZRANO
PADM 182156Z AUTO 29005KT 10SM FEW038 BKN050 02/M02 A2957 RMK AO2 SLP021 T00221017 FZRANO
PADM 182103Z AUTO 32009KT 10SM FEW008 01/M01 A2957 RMK AO2 FZRANO
PADM 182056Z AUTO 32008KT 10SM CLR 01/M02 A2957 RMK AO2 SLP022 60000 T00061017 53007 FZRANO
PADM 181956Z AUTO 31009KT 10SM SCT008 M01/M02 A2956 RMK AO2 SNE00 SLP019 P0000 T10061017 FZRANO
PADM 181931Z AUTO 00000KT 10SM BKN008 BKN085 M01/M02 A2956 RMK AO2 SNE00 P0000 FZRANO
PADM 181921Z AUTO 32003KT 10SM SCT008 BKN045 BKN085 M01/M02 A2956 RMK AO2 SNE00 P0000 FZRANO
PADM 181856Z AUTO 32005KT 9SM -SN OVC008 M01/M02 A2955 RMK AO2 SNB30 CIG 006V011 SLP015 P0000 T10111022 FZRANO
PADM 181807Z AUTO 31006KT 10SM OVC008 M01/M02 A2955 RMK AO2 FZRANO
PADM 181756Z AUTO 30007KT 9SM OVC010 M01/M02 A2955 RMK AO2 SNE02B35E52 CIG 007V011 SLP014 P0000 60000 T10111022 11011 21044 55001 FZRANO
PADM 181707Z AUTO 28004KT 9SM BKN014 OVC020 M02/M03 A2954 RMK AO2 SNE02 P0000 FZRANO
PADM 181656Z AUTO 28004KT 9SM -SN FEW014 BKN020 OVC032 M02/M03 A2954 RMK AO2 UPB07E22SNB22 SLP013 P0000 T10171028 FZRANO
PADM 181654Z AUTO 28003KT 9SM -SN FEW014 BKN020 OVC040 M02/M03 A2954 RMK AO2 UPB07E22SNB22 P0000 FZRANO
PADM 181556Z AUTO 32003KT 10SM OVC039 M03/M04 A2955 RMK AO2 SLP015 T10281039 FZRANO
PADM 181456Z AUTO 00000KT 10SM CLR M03/M04 A2955 RMK AO2 SLP014 T10331044 58003 FZRANO
PADM 181356Z AUTO 00000KT 10SM OVC033 M02/M02 A2955 RMK AO2 SLP016 T10171022 FZRANO
PADM 181256Z AUTO 00000KT 10SM BKN033 M02/M03 A2956 RMK AO2 SLP017 T10221033 FZRANO
PADM 181156Z AUTO 00000KT 10SM SCT008 OVC042 M01/M02 A2956 RMK AO2 SLP018 T10111017 10011 21011 55001 FZRANO
PADM 181056Z AUTO 00000KT 10SM BKN038 OVC047 00/M01 A2955 RMK AO2 SLP017 T00001011 FZRANO
PADM 180956Z AUTO 00000KT 10SM OVC030 M01/M02 A2956 RMK AO2 SLP019 T10061017 FZRANO
PADM 180936Z AUTO 31003KT 10SM SCT011 OVC030 00/M02 A2956 RMK AO2 FZRANO
PADM 180856Z AUTO 28005KT 10SM BKN013 OVC022 01/M01 A2956 RMK AO2 SLP019 T00061011 53006 FZRANO
PADM 180756Z AUTO 00000KT 10SM OVC011 01/M01 A2955 RMK AO2 SLP015 T00061006 400331044 FZRANO
PADM 180711Z AUTO 00000KT 10SM FEW007 BKN014 OVC019 01/M01 A2954 RMK AO2 FZRANO
PADM 180656Z AUTO 00000KT 10SM FEW007 OVC018 01/M01 A2954 RMK AO2 SLP013 T00061006 FZRANO
PADM 180635Z AUTO 00000KT 10SM SCT011 OVC018 01/M01 A2954 RMK AO2 FZRANO
PADM 180556Z AUTO 00000KT 10SM OVC013 01/M01 A2954 RMK AO2 SLP012 T00111006 10033 20006 51010 FZRANO
PADM 180542Z AUTO 30003KT 10SM OVC013 01/M01 A2954 RMK AO2 FZRANO
PADM 180511Z AUTO 29004KT 10SM FEW017 BKN027 OVC033 01/M01 A2954 RMK AO2 FZRANO
PADM 180456Z AUTO 30004KT 10SM OVC032 01/M02 A2954 RMK AO2 SLP010 T00111017 FZRANO
PADM 180356Z AUTO 32004KT 10SM OVC042 01/M02 A2953 RMK AO2 SLP007 T00111022 FZRANO
PADM 180256Z AUTO 33003KT 10SM OVC044 02/M02 A2951 RMK AO2 SLP002 T00221022 53006 FZRANO
PADM 180156Z AUTO 32005KT 10SM SCT040 02/M02 A2950 RMK AO2 SLP998 T00171017 FZRANO
PADM 180056Z AUTO 34005KT 10SM BKN042 02/M02 A2949 RMK AO2 SLP996 T00221022 FZRANO
PADM 172356Z AUTO 36007KT 10SM OVC046 03/M02 A2949 RMK AO2 SLP996 T00281022 10033 21028 51002
PADM 172319Z AUTO 35006KT 10SM SCT027 BKN046 03/M02 A2949 RMK AO2
PADM 172256Z AUTO 04007KT 10SM BKN027 03/M03 A2949 RMK AO2 SLP995 T00281028
PADM 172253Z AUTO 04007KT 10SM BKN027 03/M02 A2949 RMK AO2